Terminal Aerodrome Forecast
Issued by NWS

Current Version | Previous Version | Text Only | Print | Product List | Glossary Off
Versions: 1 2 3 4 5 6 7 8 9 10 11 12 13 14 15 16 17 18

123
FTUS41 KILN 260858 AAA
TAFLUK
TAF AMD
KLUK 260858Z 2609/2706 00000KT P6SM VCSH SCT030 BKN100
      TEMPO 2609/2612 6SM -SHRA BR BKN030
     FM261200 21007KT P6SM BKN015
     FM261800 22009KT P6SM BKN035
     FM270100 00000KT P6SM FEW040 SCT250=

USA.gov is the U.S. government's official web portal to all federal, state and local government web resources and services.